sensor_id;sensor_type;location;lat;lon;timestamp;pressure;altitude;pressure_sealevel;temperature;humidity
75290;BME280;63883;48.996;20.804;2023-05-10T00:01:24;96998.53;;;2.56;88.92
75290;BME280;63883;48.996;20.804;2023-05-10T00:03:49;96996.91;;;2.63;88.65
75290;BME280;63883;48.996;20.804;2023-05-10T00:06:15;96995.28;;;2.68;88.33
75290;BME280;63883;48.996;20.804;2023-05-10T00:08:41;96997.81;;;2.68;88.27
75290;BME280;63883;48.996;20.804;2023-05-10T00:11:07;96989.44;;;2.69;88.20
75290;BME280;63883;48.996;20.804;2023-05-10T00:13:32;96991.09;;;2.68;88.40
75290;BME280;63883;48.996;20.804;2023-05-10T00:15:58;96985.28;;;2.74;88.50
75290;BME280;63883;48.996;20.804;2023-05-10T00:18:24;96978.56;;;2.74;88.07
75290;BME280;63883;48.996;20.804;2023-05-10T00:20:49;96976.91;;;2.73;88.06
75290;BME280;63883;48.996;20.804;2023-05-10T00:23:15;96974.31;;;2.69;88.38
75290;BME280;63883;48.996;20.804;2023-05-10T00:25:41;96980.16;;;2.63;88.63
75290;BME280;63883;48.996;20.804;2023-05-10T00:28:07;96980.94;;;2.61;88.78
75290;BME280;63883;48.996;20.804;2023-05-10T00:30:32;96986.81;;;2.61;89.27
75290;BME280;63883;48.996;20.804;2023-05-10T00:32:58;96979.25;;;2.60;89.22
75290;BME280;63883;48.996;20.804;2023-05-10T00:35:24;96975.06;;;2.59;89.56
75290;BME280;63883;48.996;20.804;2023-05-10T00:37:50;96977.63;;;2.63;89.80
75290;BME280;63883;48.996;20.804;2023-05-10T00:40:15;96966.75;;;2.67;89.41
75290;BME280;63883;48.996;20.804;2023-05-10T00:42:41;96971.88;;;2.73;88.98
75290;BME280;63883;48.996;20.804;2023-05-10T00:45:07;96968.47;;;2.71;88.99
75290;BME280;63883;48.996;20.804;2023-05-10T00:47:34;96968.44;;;2.68;89.18
75290;BME280;63883;48.996;20.804;2023-05-10T00:49:59;96966.75;;;2.67;89.59
75290;BME280;63883;48.996;20.804;2023-05-10T00:52:27;96963.38;;;2.67;89.42
75290;BME280;63883;48.996;20.804;2023-05-10T00:54:54;96962.56;;;2.68;89.34
75290;BME280;63883;48.996;20.804;2023-05-10T00:57:21;96960.03;;;2.68;89.44
75290;BME280;63883;48.996;20.804;2023-05-10T00:59:47;96956.69;;;2.69;89.79
75290;BME280;63883;48.996;20.804;2023-05-10T01:02:13;96949.97;;;2.69;89.42
75290;BME280;63883;48.996;20.804;2023-05-10T01:04:39;96959.19;;;2.66;89.61
75290;BME280;63883;48.996;20.804;2023-05-10T01:07:06;96949.94;;;2.65;89.70
75290;BME280;63883;48.996;20.804;2023-05-10T01:09:32;96948.25;;;2.64;89.96
75290;BME280;63883;48.996;20.804;2023-05-10T01:11:59;96943.25;;;2.65;89.98
75290;BME280;63883;48.996;20.804;2023-05-10T01:14:26;96941.56;;;2.66;90.28
75290;BME280;63883;48.996;20.804;2023-05-10T01:16:52;96944.91;;;2.65;89.94
75290;BME280;63883;48.996;20.804;2023-05-10T01:19:29;96942.34;;;2.62;90.01
75290;BME280;63883;48.996;20.804;2023-05-10T01:22:12;96944.03;;;2.61;90.17
75290;BME280;63883;48.996;20.804;2023-05-10T01:33:49;96936.38;;;2.52;91.26
75290;BME280;63883;48.996;20.804;2023-05-10T01:36:40;96935.63;;;2.61;90.90
75290;BME280;63883;48.996;20.804;2023-05-10T01:41:53;96945.75;;;2.67;90.98
75290;BME280;63883;48.996;20.804;2023-05-10T01:47:11;96944.09;;;2.67;90.74
75290;BME280;63883;48.996;20.804;2023-05-10T01:49:50;96934.75;;;2.56;90.57
75290;BME280;63883;48.996;20.804;2023-05-10T01:52:19;96940.66;;;2.58;91.30
75290;BME280;63883;48.996;20.804;2023-05-10T01:54:57;96943.06;;;2.49;91.62
75290;BME280;63883;48.996;20.804;2023-05-10T01:57:26;96943.78;;;2.35;91.66
75290;BME280;63883;48.996;20.804;2023-05-10T01:59:53;96941.19;;;2.28;92.08
75290;BME280;63883;48.996;20.804;2023-05-10T02:02:21;96940.28;;;2.21;92.33
75290;BME280;63883;48.996;20.804;2023-05-10T02:04:49;96935.16;;;2.14;92.38
75290;BME280;63883;48.996;20.804;2023-05-10T02:07:16;96936.72;;;2.04;92.47
75290;BME280;63883;48.996;20.804;2023-05-10T02:09:45;96934.09;;;1.96;92.91
75290;BME280;63883;48.996;20.804;2023-05-10T02:12:16;96935.75;;;1.93;93.46
75290;BME280;63883;48.996;20.804;2023-05-10T02:14:43;96936.59;;;1.92;94.04
75290;BME280;63883;48.996;20.804;2023-05-10T02:17:11;96926.53;;;1.92;93.54
75290;BME280;63883;48.996;20.804;2023-05-10T02:19:39;96937.34;;;1.86;93.71
75290;BME280;63883;48.996;20.804;2023-05-10T02:22:07;96934.78;;;1.83;93.82
75290;BME280;63883;48.996;20.804;2023-05-10T02:24:34;96933.06;;;1.81;94.06
75290;BME280;63883;48.996;20.804;2023-05-10T02:27:03;96933.06;;;1.81;94.12
75290;BME280;63883;48.996;20.804;2023-05-10T02:29:31;96927.22;;;1.79;94.17
75290;BME280;63883;48.996;20.804;2023-05-10T02:31:57;96921.34;;;1.81;94.31
75290;BME280;63883;48.996;20.804;2023-05-10T02:34:26;96932.22;;;1.80;94.25
75290;BME280;63883;48.996;20.804;2023-05-10T02:36:53;96922.19;;;1.79;94.02
75290;BME280;63883;48.996;20.804;2023-05-10T02:39:20;96931.38;;;1.77;94.09
75290;BME280;63883;48.996;20.804;2023-05-10T02:41:47;96926.38;;;1.81;94.84
75290;BME280;63883;48.996;20.804;2023-05-10T02:44:15;96923.88;;;1.83;94.08
75290;BME280;63883;48.996;20.804;2023-05-10T02:46:41;96916.31;;;1.80;94.10
75290;BME280;63883;48.996;20.804;2023-05-10T02:49:07;96926.53;;;1.92;93.70
75290;BME280;63883;48.996;20.804;2023-05-10T02:51:36;96923.16;;;1.91;93.26
75290;BME280;63883;48.996;20.804;2023-05-10T02:54:16;96916.47;;;1.92;93.46
75290;BME280;63883;48.996;20.804;2023-05-10T02:56:53;96920.69;;;1.96;93.67
75290;BME280;63883;48.996;20.804;2023-05-10T02:59:21;96922.38;;;1.94;93.48
75290;BME280;63883;48.996;20.804;2023-05-10T03:01:47;96916.47;;;1.93;93.12
75290;BME280;63883;48.996;20.804;2023-05-10T03:04:13;96923.19;;;1.96;93.55
75290;BME280;63883;48.996;20.804;2023-05-10T03:06:39;96920.75;;;2.01;93.81
75290;BME280;63883;48.996;20.804;2023-05-10T03:09:05;96922.47;;;2.05;93.37
75290;BME280;63883;48.996;20.804;2023-05-10T03:17:10;96920.84;;;2.10;93.05
75290;BME280;63883;48.996;20.804;2023-05-10T03:19:44;96921.66;;;2.07;92.93
75290;BME280;63883;48.996;20.804;2023-05-10T03:22:14;96919.94;;;2.05;92.93
75290;BME280;63883;48.996;20.804;2023-05-10T03:24:46;96919.88;;;1.97;93.46
75290;BME280;63883;48.996;20.804;2023-05-10T03:27:14;96915.69;;;1.98;93.30
75290;BME280;63883;48.996;20.804;2023-05-10T03:29:41;96912.31;;;1.94;93.46
75290;BME280;63883;48.996;20.804;2023-05-10T03:32:07;96914.84;;;1.97;93.80
75290;BME280;63883;48.996;20.804;2023-05-10T03:34:33;96919.00;;;1.96;93.98
75290;BME280;63883;48.996;20.804;2023-05-10T03:36:59;96924.13;;;2.04;94.13
75290;BME280;63883;48.996;20.804;2023-05-10T03:39:25;96923.34;;;2.10;94.02
75290;BME280;63883;48.996;20.804;2023-05-10T03:41:50;96917.50;;;2.11;94.10
75290;BME280;63883;48.996;20.804;2023-05-10T03:44:16;96920.09;;;2.15;93.89
75290;BME280;63883;48.996;20.804;2023-05-10T03:46:41;96917.56;;;2.17;93.94
75290;BME280;63883;48.996;20.804;2023-05-10T03:49:07;96917.59;;;2.20;93.95
75290;BME280;63883;48.996;20.804;2023-05-10T03:51:33;96915.97;;;2.25;93.75
75290;BME280;63883;48.996;20.804;2023-05-10T03:53:59;96921.88;;;2.27;93.89
75290;BME280;63883;48.996;20.804;2023-05-10T03:56:24;96915.22;;;2.30;93.82
75290;BME280;63883;48.996;20.804;2023-05-10T03:58:50;96917.75;;;2.33;93.70
75290;BME280;63883;48.996;20.804;2023-05-10T04:01:15;96921.16;;;2.39;93.67
75290;BME280;63883;48.996;20.804;2023-05-10T04:03:41;96918.63;;;2.39;93.70
75290;BME280;63883;48.996;20.804;2023-05-10T04:06:07;96922.09;;;2.48;93.76
75290;BME280;63883;48.996;20.804;2023-05-10T04:08:34;96923.84;;;2.55;93.64
75290;BME280;63883;48.996;20.804;2023-05-10T04:11:17;96924.72;;;2.59;93.30
75290;BME280;63883;48.996;20.804;2023-05-10T04:13:43;96918.81;;;2.57;93.10
75290;BME280;63883;48.996;20.804;2023-05-10T04:16:09;96917.97;;;2.56;93.05
75290;BME280;63883;48.996;20.804;2023-05-10T04:18:35;96923.03;;;2.61;92.76
75290;BME280;63883;48.996;20.804;2023-05-10T04:21:01;96923.09;;;2.65;93.09
75290;BME280;63883;48.996;20.804;2023-05-10T04:23:27;96929.03;;;2.75;92.85
75290;BME280;63883;48.996;20.804;2023-05-10T04:25:59;96930.88;;;2.91;93.17
75290;BME280;63883;48.996;20.804;2023-05-10T04:28:25;96921.72;;;3.02;92.87
75290;BME280;63883;48.996;20.804;2023-05-10T04:30:50;96926.03;;;3.16;92.55
75290;BME280;63883;48.996;20.804;2023-05-10T04:33:17;96926.06;;;3.25;91.89
75290;BME280;63883;48.996;20.804;2023-05-10T04:35:42;96919.44;;;3.40;91.20
75290;BME280;63883;48.996;20.804;2023-05-10T04:38:08;96922.94;;;3.62;90.22
75290;BME280;63883;48.996;20.804;2023-05-10T04:40:33;96916.28;;;3.76;89.25
75290;BME280;63883;48.996;20.804;2023-05-10T04:42:59;96921.41;;;3.88;88.31
75290;BME280;63883;48.996;20.804;2023-05-10T04:45:25;96913.00;;;3.99;87.30
75290;BME280;63883;48.996;20.804;2023-05-10T04:47:51;96909.69;;;4.12;86.81
75290;BME280;63883;48.996;20.804;2023-05-10T04:50:16;96924.00;;;4.19;86.29
75290;BME280;63883;48.996;20.804;2023-05-10T04:52:43;96910.59;;;4.35;85.27
75290;BME280;63883;48.996;20.804;2023-05-10T04:55:08;96915.69;;;4.52;84.44
75290;BME280;63883;48.996;20.804;2023-05-10T04:57:35;96912.34;;;4.65;84.35
75290;BME280;63883;48.996;20.804;2023-05-10T05:00:00;96914.03;;;4.72;84.60
75290;BME280;63883;48.996;20.804;2023-05-10T05:02:27;96909.81;;;4.86;84.19
75290;BME280;63883;48.996;20.804;2023-05-10T05:04:52;96905.63;;;5.00;83.23
75290;BME280;63883;48.996;20.804;2023-05-10T05:07:18;96918.25;;;5.11;83.23
75290;BME280;63883;48.996;20.804;2023-05-10T05:09:44;96904.75;;;5.24;82.62
75290;BME280;63883;48.996;20.804;2023-05-10T05:12:10;96913.16;;;5.34;82.14
75290;BME280;63883;48.996;20.804;2023-05-10T05:14:39;96919.03;;;5.51;82.34
75290;BME280;63883;48.996;20.804;2023-05-10T05:17:05;96910.56;;;5.63;81.40
75290;BME280;63883;48.996;20.804;2023-05-10T05:19:31;96908.03;;;5.75;80.91
75290;BME280;63883;48.996;20.804;2023-05-10T05:21:57;96913.91;;;5.91;80.47
75290;BME280;63883;48.996;20.804;2023-05-10T05:24:22;96913.81;;;6.12;80.02
75290;BME280;63883;48.996;20.804;2023-05-10T05:26:48;96911.19;;;6.30;77.08
75290;BME280;63883;48.996;20.804;2023-05-10T05:29:14;96908.59;;;6.38;74.30
75290;BME280;63883;48.996;20.804;2023-05-10T05:31:40;96914.44;;;6.49;73.48
75290;BME280;63883;48.996;20.804;2023-05-10T05:34:05;96915.19;;;6.66;74.23
75290;BME280;63883;48.996;20.804;2023-05-10T05:36:31;96919.25;;;6.87;73.14
75290;BME280;63883;48.996;20.804;2023-05-10T05:38:57;96910.63;;;7.09;72.92
75290;BME280;63883;48.996;20.804;2023-05-10T05:41:23;96901.16;;;7.29;73.50
75290;BME280;63883;48.996;20.804;2023-05-10T05:43:49;96897.63;;;7.45;71.21
75290;BME280;63883;48.996;20.804;2023-05-10T05:46:15;96901.72;;;7.57;71.54
75290;BME280;63883;48.996;20.804;2023-05-10T05:48:41;96907.41;;;7.80;70.37
75290;BME280;63883;48.996;20.804;2023-05-10T05:51:07;96902.16;;;7.94;68.85
75290;BME280;63883;48.996;20.804;2023-05-10T05:53:32;96912.16;;;8.08;68.30
75290;BME280;63883;48.996;20.804;2023-05-10T05:55:58;96905.25;;;8.20;67.88
75290;BME280;63883;48.996;20.804;2023-05-10T05:58:25;96903.25;;;8.44;67.69
75290;BME280;63883;48.996;20.804;2023-05-10T06:00:51;96903.97;;;8.53;67.12
75290;BME280;63883;48.996;20.804;2023-05-10T06:03:17;96902.03;;;8.71;67.28
75290;BME280;63883;48.996;20.804;2023-05-10T06:05:43;96901.94;;;8.77;66.15
75290;BME280;63883;48.996;20.804;2023-05-10T06:08:09;96905.94;;;8.93;64.82
75290;BME280;63883;48.996;20.804;2023-05-10T06:10:35;96893.84;;;9.06;64.44
75290;BME280;63883;48.996;20.804;2023-05-10T06:13:01;96900.13;;;9.35;64.25
75290;BME280;63883;48.996;20.804;2023-05-10T06:15:27;96900.63;;;9.56;64.67
75290;BME280;63883;48.996;20.804;2023-05-10T06:17:53;96904.63;;;9.69;63.48
75290;BME280;63883;48.996;20.804;2023-05-10T06:20:18;96906.91;;;9.83;60.55
75290;BME280;63883;48.996;20.804;2023-05-10T06:22:44;96894.06;;;9.87;60.39
75290;BME280;63883;48.996;20.804;2023-05-10T06:25:10;96891.28;;;9.99;59.14
75290;BME280;63883;48.996;20.804;2023-05-10T06:27:36;96895.22;;;10.15;55.93
75290;BME280;63883;48.996;20.804;2023-05-10T06:30:02;96890.16;;;10.12;54.82
75290;BME280;63883;48.996;20.804;2023-05-10T06:32:28;96890.78;;;10.25;54.57
75290;BME280;63883;48.996;20.804;2023-05-10T06:34:54;96888.84;;;10.36;54.08
75290;BME280;63883;48.996;20.804;2023-05-10T06:37:19;96890.47;;;10.39;53.85
75290;BME280;63883;48.996;20.804;2023-05-10T06:39:45;96893.66;;;10.50;54.37
75290;BME280;63883;48.996;20.804;2023-05-10T06:42:11;96894.19;;;10.64;54.20
75290;BME280;63883;48.996;20.804;2023-05-10T06:44:37;96889.63;;;10.77;53.91
75290;BME280;63883;48.996;20.804;2023-05-10T06:47:02;96887.63;;;10.89;53.31
75290;BME280;63883;48.996;20.804;2023-05-10T06:49:28;96886.41;;;11.06;53.67
75290;BME280;63883;48.996;20.804;2023-05-10T06:51:55;96891.69;;;11.32;52.80
75290;BME280;63883;48.996;20.804;2023-05-10T06:54:21;96887.75;;;11.53;51.65
75290;BME280;63883;48.996;20.804;2023-05-10T06:56:47;96886.25;;;11.78;50.43
75290;BME280;63883;48.996;20.804;2023-05-10T06:59:12;96885.06;;;12.21;50.61
75290;BME280;63883;48.996;20.804;2023-05-10T07:01:39;96883.34;;;12.50;49.05
75290;BME280;63883;48.996;20.804;2023-05-10T07:04:05;96877.16;;;12.58;48.21
75290;BME280;63883;48.996;20.804;2023-05-10T07:06:32;96885.59;;;12.32;49.46
75290;BME280;63883;48.996;20.804;2023-05-10T07:08:59;96881.88;;;12.70;48.95
75290;BME280;63883;48.996;20.804;2023-05-10T07:11:24;96884.25;;;12.76;48.38
75290;BME280;63883;48.996;20.804;2023-05-10T07:13:50;96883.03;;;12.87;47.99
75290;BME280;63883;48.996;20.804;2023-05-10T07:16:16;96881.16;;;12.93;47.28
75290;BME280;63883;48.996;20.804;2023-05-10T07:18:42;96873.50;;;12.93;48.07
75290;BME280;63883;48.996;20.804;2023-05-10T07:21:07;96878.97;;;13.08;47.12
75290;BME280;63883;48.996;20.804;2023-05-10T07:23:34;96875.94;;;13.23;47.07
75290;BME280;63883;48.996;20.804;2023-05-10T07:25:59;96877.00;;;13.43;45.99
75290;BME280;63883;48.996;20.804;2023-05-10T07:28:25;96878.41;;;13.51;45.91
75290;BME280;63883;48.996;20.804;2023-05-10T07:30:51;96873.13;;;13.56;46.33
75290;BME280;63883;48.996;20.804;2023-05-10T07:33:17;96878.16;;;13.59;46.08
75290;BME280;63883;48.996;20.804;2023-05-10T07:35:43;96876.16;;;13.67;46.71
75290;BME280;63883;48.996;20.804;2023-05-10T07:38:08;96875.81;;;13.76;45.06
75290;BME280;63883;48.996;20.804;2023-05-10T07:40:36;96870.97;;;13.44;45.97
75290;BME280;63883;48.996;20.804;2023-05-10T07:43:02;96864.47;;;13.83;47.90
75290;BME280;63883;48.996;20.804;2023-05-10T07:45:27;96865.09;;;14.13;46.61
75290;BME280;63883;48.996;20.804;2023-05-10T07:47:53;96858.91;;;14.19;45.59
75290;BME280;63883;48.996;20.804;2023-05-10T07:50:19;96859.25;;;14.10;44.10
75290;BME280;63883;48.996;20.804;2023-05-10T07:52:47;96858.44;;;13.84;43.09
75290;BME280;63883;48.996;20.804;2023-05-10T07:55:13;96855.13;;;13.82;43.69
75290;BME280;63883;48.996;20.804;2023-05-10T07:57:39;96857.44;;;13.65;44.85
75290;BME280;63883;48.996;20.804;2023-05-10T08:00:06;96857.66;;;13.59;45.00
75290;BME280;63883;48.996;20.804;2023-05-10T08:02:32;96850.84;;;13.58;45.79
75290;BME280;63883;48.996;20.804;2023-05-10T08:04:58;96843.50;;;13.72;45.39
75290;BME280;63883;48.996;20.804;2023-05-10T08:07:24;96848.53;;;13.75;44.74
75290;BME280;63883;48.996;20.804;2023-05-10T08:09:50;96855.00;;;13.85;43.60
75290;BME280;63883;48.996;20.804;2023-05-10T08:12:16;96851.50;;;14.11;44.78
75290;BME280;63883;48.996;20.804;2023-05-10T08:14:42;96854.78;;;14.38;43.24
75290;BME280;63883;48.996;20.804;2023-05-10T08:17:08;96849.03;;;14.55;40.20
75290;BME280;63883;48.996;20.804;2023-05-10T08:19:34;96836.59;;;14.44;38.83
75290;BME280;63883;48.996;20.804;2023-05-10T08:22:00;96847.09;;;14.38;39.60
75290;BME280;63883;48.996;20.804;2023-05-10T08:24:26;96840.00;;;14.44;39.97
75290;BME280;63883;48.996;20.804;2023-05-10T08:26:51;96852.81;;;14.44;39.36
75290;BME280;63883;48.996;20.804;2023-05-10T08:29:17;96852.16;;;14.39;40.81
75290;BME280;63883;48.996;20.804;2023-05-10T08:31:43;96852.47;;;14.54;41.79
75290;BME280;63883;48.996;20.804;2023-05-10T08:34:08;96848.09;;;14.77;42.37
75290;BME280;63883;48.996;20.804;2023-05-10T08:36:34;96845.16;;;15.08;40.27
75290;BME280;63883;48.996;20.804;2023-05-10T08:39:00;96848.88;;;15.21;40.08
75290;BME280;63883;48.996;20.804;2023-05-10T08:41:26;96844.19;;;15.51;41.31
75290;BME280;63883;48.996;20.804;2023-05-10T08:43:52;96845.16;;;15.49;38.20
75290;BME280;63883;48.996;20.804;2023-05-10T08:46:20;96848.13;;;15.19;37.47
75290;BME280;63883;48.996;20.804;2023-05-10T08:48:48;96852.94;;;15.27;37.92
75290;BME280;63883;48.996;20.804;2023-05-10T08:51:18;96843.75;;;15.42;37.90
75290;BME280;63883;48.996;20.804;2023-05-10T08:53:45;96844.09;;;15.75;39.31
75290;BME280;63883;48.996;20.804;2023-05-10T08:56:11;96843.97;;;15.96;38.53
75290;BME280;63883;48.996;20.804;2023-05-10T08:58:37;96840.34;;;15.82;38.74
75290;BME280;63883;48.996;20.804;2023-05-10T09:01:05;96846.66;;;15.75;36.52
75290;BME280;63883;48.996;20.804;2023-05-10T09:03:31;96849.34;;;15.51;37.08
75290;BME280;63883;48.996;20.804;2023-05-10T09:05:57;96859.13;;;15.63;37.18
75290;BME280;63883;48.996;20.804;2023-05-10T09:08:24;96846.03;;;15.88;37.41
75290;BME280;63883;48.996;20.804;2023-05-10T09:10:56;96850.47;;;15.85;36.40
75290;BME280;63883;48.996;20.804;2023-05-10T09:13:23;96851.69;;;15.96;37.65
75290;BME280;63883;48.996;20.804;2023-05-10T09:15:50;96843.38;;;15.71;39.39
75290;BME280;63883;48.996;20.804;2023-05-10T09:18:16;96850.03;;;15.95;38.17
75290;BME280;63883;48.996;20.804;2023-05-10T09:20:42;96850.03;;;16.33;37.04
75290;BME280;63883;48.996;20.804;2023-05-10T09:23:08;96852.22;;;16.42;38.14
75290;BME280;63883;48.996;20.804;2023-05-10T09:25:34;96843.47;;;16.45;36.74
75290;BME280;63883;48.996;20.804;2023-05-10T09:28:00;96837.59;;;16.24;38.43
75290;BME280;63883;48.996;20.804;2023-05-10T09:30:26;96842.47;;;16.11;37.38
75290;BME280;63883;48.996;20.804;2023-05-10T09:32:53;96854.00;;;16.02;37.87
75290;BME280;63883;48.996;20.804;2023-05-10T09:35:22;96845.00;;;15.92;37.49
75290;BME280;63883;48.996;20.804;2023-05-10T09:37:50;96837.06;;;15.78;36.81
75290;BME280;63883;48.996;20.804;2023-05-10T09:40:18;96830.91;;;16.01;37.50
75290;BME280;63883;48.996;20.804;2023-05-10T09:45:24;96833.16;;;18.01;36.55
75290;BME280;63883;48.996;20.804;2023-05-10T09:47:50;96830.88;;;17.79;34.61
75290;BME280;63883;48.996;20.804;2023-05-10T09:50:16;96831.09;;;17.92;34.81
75290;BME280;63883;48.996;20.804;2023-05-10T09:52:55;96823.28;;;18.25;33.39
75290;BME280;63883;48.996;20.804;2023-05-10T09:55:45;96809.47;;;19.03;33.77
75290;BME280;63883;48.996;20.804;2023-05-10T09:58:12;96812.81;;;18.59;34.59
75290;BME280;63883;48.996;20.804;2023-05-10T10:00:45;96806.53;;;18.48;34.04
75290;BME280;63883;48.996;20.804;2023-05-10T10:03:17;96813.78;;;18.10;32.58
75290;BME280;63883;48.996;20.804;2023-05-10T10:05:43;96810.06;;;17.82;33.70
75290;BME280;63883;48.996;20.804;2023-05-10T10:08:10;96816.56;;;17.39;34.02
75290;BME280;63883;48.996;20.804;2023-05-10T10:10:36;96816.31;;;17.44;35.60
75290;BME280;63883;48.996;20.804;2023-05-10T10:13:02;96814.25;;;17.35;34.31
75290;BME280;63883;48.996;20.804;2023-05-10T10:15:28;96815.84;;;17.20;35.09
75290;BME280;63883;48.996;20.804;2023-05-10T10:17:54;96808.38;;;17.31;35.02
75290;BME280;63883;48.996;20.804;2023-05-10T10:20:21;96812.56;;;17.34;34.34
75290;BME280;63883;48.996;20.804;2023-05-10T10:22:48;96803.63;;;17.06;35.17
75290;BME280;63883;48.996;20.804;2023-05-10T10:25:15;96811.88;;;16.96;35.22
75290;BME280;63883;48.996;20.804;2023-05-10T10:35:32;96812.31;;;16.87;36.65
75290;BME280;63883;48.996;20.804;2023-05-10T10:37:58;96805.84;;;16.61;36.00
75290;BME280;63883;48.996;20.804;2023-05-10T10:40:29;96810.09;;;16.62;36.65
75290;BME280;63883;48.996;20.804;2023-05-10T10:42:56;96800.69;;;16.61;36.79
75290;BME280;63883;48.996;20.804;2023-05-10T10:45:24;96807.09;;;16.71;37.62
75290;BME280;63883;48.996;20.804;2023-05-10T10:48:21;96801.72;;;16.57;37.73
75290;BME280;63883;48.996;20.804;2023-05-10T10:50:47;96797.22;;;16.79;37.71
75290;BME280;63883;48.996;20.804;2023-05-10T10:53:21;96793.00;;;16.78;36.86
75290;BME280;63883;48.996;20.804;2023-05-10T10:55:47;96786.81;;;16.99;36.60
75290;BME280;63883;48.996;20.804;2023-05-10T10:58:32;96785.63;;;17.22;37.61
75290;BME280;63883;48.996;20.804;2023-05-10T11:01:10;96784.28;;;16.81;37.04
75290;BME280;63883;48.996;20.804;2023-05-10T11:03:35;96787.19;;;16.92;37.94
75290;BME280;63883;48.996;20.804;2023-05-10T11:06:01;96791.56;;;16.90;37.88
75290;BME280;63883;48.996;20.804;2023-05-10T11:08:29;96793.91;;;16.94;38.19
75290;BME280;63883;48.996;20.804;2023-05-10T11:13:44;96786.13;;;18.59;34.30
75290;BME280;63883;48.996;20.804;2023-05-10T11:16:20;96786.41;;;18.07;34.62
75290;BME280;63883;48.996;20.804;2023-05-10T11:21:22;96792.50;;;17.56;36.17
75290;BME280;63883;48.996;20.804;2023-05-10T11:23:53;96789.19;;;17.37;38.16
75290;BME280;63883;48.996;20.804;2023-05-10T11:26:27;96789.81;;;18.08;36.07
75290;BME280;63883;48.996;20.804;2023-05-10T11:28:55;96795.53;;;18.76;35.43
75290;BME280;63883;48.996;20.804;2023-05-10T11:31:22;96789.47;;;18.14;36.20
75290;BME280;63883;48.996;20.804;2023-05-10T11:33:53;96783.41;;;18.15;36.63
75290;BME280;63883;48.996;20.804;2023-05-10T11:36:25;96785.25;;;17.30;37.81
75290;BME280;63883;48.996;20.804;2023-05-10T11:38:51;96786.41;;;17.24;38.30
75290;BME280;63883;48.996;20.804;2023-05-10T11:41:19;96795.72;;;17.09;36.66
75290;BME280;63883;48.996;20.804;2023-05-10T11:43:48;96779.06;;;16.99;36.81
75290;BME280;63883;48.996;20.804;2023-05-10T11:46:15;96776.03;;;16.91;37.92
75290;BME280;63883;48.996;20.804;2023-05-10T11:48:42;96777.94;;;17.05;37.76
75290;BME280;63883;48.996;20.804;2023-05-10T11:51:10;96775.41;;;16.69;38.68
75290;BME280;63883;48.996;20.804;2023-05-10T11:53:36;96777.56;;;16.78;38.24
75290;BME280;63883;48.996;20.804;2023-05-10T11:56:03;96783.00;;;16.53;38.38
75290;BME280;63883;48.996;20.804;2023-05-10T11:58:31;96778.56;;;16.57;37.50
75290;BME280;63883;48.996;20.804;2023-05-10T12:00:58;96771.88;;;16.53;38.63
75290;BME280;63883;48.996;20.804;2023-05-10T12:03:24;96775.34;;;16.52;37.30
75290;BME280;63883;48.996;20.804;2023-05-10T12:05:50;96773.00;;;16.47;37.08
75290;BME280;63883;48.996;20.804;2023-05-10T12:08:20;96773.06;;;16.46;37.81
75290;BME280;63883;48.996;20.804;2023-05-10T12:10:46;96773.28;;;16.41;38.18
75290;BME280;63883;48.996;20.804;2023-05-10T12:13:13;96774.84;;;16.26;38.00
75290;BME280;63883;48.996;20.804;2023-05-10T12:15:39;96771.44;;;16.26;39.16
75290;BME280;63883;48.996;20.804;2023-05-10T12:18:05;96767.00;;;16.47;39.19
75290;BME280;63883;48.996;20.804;2023-05-10T12:20:31;96764.28;;;16.86;37.90
75290;BME280;63883;48.996;20.804;2023-05-10T12:22:58;96775.28;;;16.53;37.75
75290;BME280;63883;48.996;20.804;2023-05-10T12:25:30;96774.19;;;16.21;38.77
75290;BME280;63883;48.996;20.804;2023-05-10T12:27:57;96774.84;;;15.89;37.87
75290;BME280;63883;48.996;20.804;2023-05-10T12:30:25;96768.59;;;15.76;38.73
75290;BME280;63883;48.996;20.804;2023-05-10T12:32:52;96770.00;;;15.83;38.90
75290;BME280;63883;48.996;20.804;2023-05-10T12:35:18;96764.44;;;15.92;38.46
75290;BME280;63883;48.996;20.804;2023-05-10T12:37:50;96773.78;;;15.93;38.11
75290;BME280;63883;48.996;20.804;2023-05-10T12:40:16;96764.06;;;15.81;38.25
75290;BME280;63883;48.996;20.804;2023-05-10T12:42:42;96763.50;;;15.93;39.12
75290;BME280;63883;48.996;20.804;2023-05-10T12:45:10;96756.53;;;16.14;38.15
75290;BME280;63883;48.996;20.804;2023-05-10T12:47:36;96758.28;;;16.68;36.72
75290;BME280;63883;48.996;20.804;2023-05-10T12:50:03;96755.41;;;16.74;37.89
75290;BME280;63883;48.996;20.804;2023-05-10T12:52:29;96759.81;;;16.89;36.20
75290;BME280;63883;48.996;20.804;2023-05-10T12:54:55;96747.38;;;16.97;37.04
75290;BME280;63883;48.996;20.804;2023-05-10T12:57:21;96748.91;;;16.84;36.50
75290;BME280;63883;48.996;20.804;2023-05-10T12:59:47;96741.31;;;16.81;36.32
75290;BME280;63883;48.996;20.804;2023-05-10T13:02:12;96740.63;;;16.95;37.72
75290;BME280;63883;48.996;20.804;2023-05-10T13:04:40;96743.84;;;17.33;35.54
75290;BME280;63883;48.996;20.804;2023-05-10T13:07:07;96736.53;;;18.52;33.50
75290;BME280;63883;48.996;20.804;2023-05-10T13:09:32;96729.31;;;18.43;33.08
75290;BME280;63883;48.996;20.804;2023-05-10T13:11:58;96728.41;;;18.13;33.38
75290;BME280;63883;48.996;20.804;2023-05-10T13:14:25;96732.81;;;17.64;34.84
75290;BME280;63883;48.996;20.804;2023-05-10T13:16:50;96735.31;;;17.81;33.88
75290;BME280;63883;48.996;20.804;2023-05-10T13:19:16;96716.94;;;19.52;31.45
75290;BME280;63883;48.996;20.804;2023-05-10T13:21:43;96706.63;;;20.34;28.90
75290;BME280;63883;48.996;20.804;2023-05-10T13:24:12;96705.56;;;19.55;30.06
75290;BME280;63883;48.996;20.804;2023-05-10T13:26:40;96713.78;;;18.89;31.42
75290;BME280;63883;48.996;20.804;2023-05-10T13:29:06;96712.22;;;18.56;32.68
75290;BME280;63883;48.996;20.804;2023-05-10T13:31:33;96714.00;;;18.09;33.66